createdAt,value
2023-05-19T00:00:35.866Z,588.00
2023-05-19T00:01:35.875Z,586.00
2023-05-19T00:02:35.902Z,587.00
2023-05-19T00:03:35.921Z,593.00
2023-05-19T00:04:35.936Z,587.00
2023-05-19T00:05:35.995Z,589.00
2023-05-19T00:06:36.071Z,591.00
2023-05-19T00:07:36.136Z,589.00
2023-05-19T00:08:36.134Z,589.00
2023-05-19T00:09:36.138Z,589.00
2023-05-19T00:10:36.153Z,589.00
2023-05-19T00:11:36.164Z,589.00
2023-05-19T00:12:36.161Z,590.00
2023-05-19T00:13:36.154Z,591.00
2023-05-19T00:14:36.150Z,591.00
2023-05-19T00:15:36.199Z,591.00
2023-05-19T00:16:36.188Z,586.00
2023-05-19T00:17:36.216Z,588.00
2023-05-19T00:18:36.246Z,583.00
2023-05-19T00:19:36.177Z,586.00
2023-05-19T00:20:36.170Z,588.00
2023-05-19T00:21:36.169Z,591.00
2023-05-19T00:22:36.184Z,585.00
2023-05-19T00:23:36.216Z,589.00
2023-05-19T00:24:36.246Z,585.00
2023-05-19T00:25:36.282Z,588.00
2023-05-19T00:26:36.374Z,588.00
2023-05-19T00:27:36.404Z,587.00
2023-05-19T00:28:36.464Z,588.00
2023-05-19T00:29:36.476Z,592.00
2023-05-19T00:30:36.494Z,585.00
2023-05-19T00:31:36.568Z,589.00
2023-05-19T00:32:36.624Z,590.00
2023-05-19T00:33:36.589Z,587.00
2023-05-19T00:34:36.602Z,581.00
2023-05-19T00:35:36.604Z,585.00
2023-05-19T00:36:36.611Z,587.00
2023-05-19T00:37:36.614Z,587.00
2023-05-19T00:38:36.637Z,588.00
2023-05-19T00:39:36.655Z,587.00
2023-05-19T00:40:36.666Z,587.00
2023-05-19T00:41:36.707Z,591.00
2023-05-19T00:42:36.729Z,581.00
2023-05-19T00:43:36.786Z,590.00
2023-05-19T00:44:36.811Z,588.00
2023-05-19T00:45:36.850Z,586.00
2023-05-19T00:46:36.923Z,584.00
2023-05-19T00:47:36.921Z,582.00
2023-05-19T00:48:36.968Z,584.00
2023-05-19T00:49:36.997Z,584.00
2023-05-19T00:50:37.007Z,584.00
2023-05-19T00:51:37.021Z,590.00
2023-05-19T00:52:37.048Z,588.00
2023-05-19T00:53:37.065Z,586.00
2023-05-19T00:54:37.116Z,591.00
2023-05-19T00:55:37.148Z,584.00
2023-05-19T00:56:37.161Z,586.00
2023-05-19T00:57:37.172Z,584.00
2023-05-19T00:58:37.190Z,587.00
2023-05-19T00:59:37.207Z,582.00
2023-05-19T01:00:37.271Z,584.00
2023-05-19T01:01:37.420Z,583.00
2023-05-19T01:02:37.287Z,587.00
2023-05-19T01:03:37.377Z,588.00
2023-05-19T01:04:37.280Z,590.00
2023-05-19T01:05:37.290Z,584.00
2023-05-19T01:06:37.307Z,582.00
2023-05-19T01:07:37.326Z,582.00
2023-05-19T01:08:37.463Z,583.00
2023-05-19T01:09:37.367Z,585.00
2023-05-19T01:10:37.361Z,587.00
2023-05-19T01:11:37.414Z,585.00
2023-05-19T01:12:37.456Z,584.00
2023-05-19T01:13:39.128Z,581.00
2023-05-19T01:14:37.512Z,581.00
2023-05-19T01:15:37.492Z,583.00
2023-05-19T01:16:37.628Z,582.00
2023-05-19T01:17:37.560Z,587.00
2023-05-19T01:18:37.543Z,586.00
2023-05-19T01:19:37.513Z,588.00
2023-05-19T01:20:37.522Z,592.00
2023-05-19T01:21:37.546Z,589.00
2023-05-19T01:22:37.548Z,590.00
2023-05-19T01:23:37.545Z,591.00
2023-05-19T01:24:37.551Z,581.00
2023-05-19T01:25:37.544Z,586.00
2023-05-19T01:26:37.564Z,584.00
2023-05-19T01:27:37.561Z,584.00
2023-05-19T01:28:37.576Z,588.00
2023-05-19T01:29:37.587Z,583.00
2023-05-19T01:30:37.603Z,585.00
2023-05-19T01:31:37.652Z,588.00
2023-05-19T01:32:37.696Z,588.00
2023-05-19T01:33:37.616Z,591.00
2023-05-19T01:34:37.617Z,583.00
2023-05-19T01:35:37.646Z,590.00
2023-05-19T01:36:37.642Z,587.00
2023-05-19T01:37:37.650Z,587.00
2023-05-19T01:38:37.647Z,582.00
2023-05-19T01:39:37.662Z,586.00
2023-05-19T01:40:37.668Z,584.00
2023-05-19T01:41:37.682Z,587.00
2023-05-19T01:42:37.693Z,584.00
2023-05-19T01:43:37.713Z,580.00
2023-05-19T01:44:37.713Z,582.00
2023-05-19T01:45:37.770Z,583.00
2023-05-19T01:46:37.721Z,581.00
2023-05-19T01:47:37.746Z,588.00
2023-05-19T01:48:37.727Z,586.00
2023-05-19T01:49:37.725Z,587.00
2023-05-19T01:50:37.727Z,592.00
2023-05-19T01:51:37.723Z,579.00
2023-05-19T01:52:37.724Z,585.00
2023-05-19T01:53:37.732Z,580.00
2023-05-19T01:54:37.737Z,584.00
2023-05-19T01:55:37.737Z,581.00
2023-05-19T01:56:37.748Z,584.00
2023-05-19T01:57:37.758Z,585.00
2023-05-19T01:58:37.766Z,586.00
2023-05-19T01:59:37.780Z,582.00
2023-05-19T02:00:37.783Z,582.00
2023-05-19T02:01:37.912Z,580.00
2023-05-19T02:02:37.816Z,580.00
2023-05-19T02:03:37.792Z,581.00
2023-05-19T02:04:37.857Z,583.00
2023-05-19T02:05:37.780Z,584.00
2023-05-19T02:06:37.798Z,585.00
2023-05-19T02:07:37.798Z,584.00
2023-05-19T02:08:37.797Z,586.00
2023-05-19T02:09:37.792Z,585.00
2023-05-19T02:10:37.801Z,587.00
2023-05-19T02:11:37.810Z,582.00
2023-05-19T02:12:37.845Z,584.00
2023-05-19T02:13:37.830Z,584.00
2023-05-19T02:14:37.829Z,588.00
2023-05-19T02:15:37.853Z,585.00
2023-05-19T02:16:37.831Z,585.00
2023-05-19T02:17:37.887Z,582.00
2023-05-19T02:18:37.858Z,591.00
2023-05-19T02:19:37.844Z,581.00
2023-05-19T02:20:37.853Z,583.00
2023-05-19T02:21:37.857Z,583.00
2023-05-19T02:22:37.852Z,578.00
2023-05-19T02:23:37.842Z,584.00
2023-05-19T02:24:37.842Z,585.00
2023-05-19T02:25:37.856Z,587.00
2023-05-19T02:26:37.882Z,586.00
2023-05-19T02:27:37.882Z,583.00
2023-05-19T02:28:37.864Z,588.00
2023-05-19T02:29:37.866Z,585.00
2023-05-19T02:30:37.872Z,586.00
2023-05-19T02:31:37.943Z,583.00
2023-05-19T02:32:37.952Z,584.00
2023-05-19T02:33:37.881Z,581.00
2023-05-19T02:34:37.890Z,587.00
2023-05-19T02:35:37.900Z,584.00
2023-05-19T02:36:37.891Z,583.00
2023-05-19T02:37:38.008Z,583.00
2023-05-19T02:38:37.882Z,586.00
2023-05-19T02:39:37.889Z,582.00
2023-05-19T02:40:37.888Z,583.00
2023-05-19T02:41:37.900Z,586.00
2023-05-19T02:42:37.920Z,583.00
2023-05-19T02:43:37.913Z,586.00
2023-05-19T02:44:37.911Z,577.00
2023-05-19T02:45:37.929Z,580.00
2023-05-19T02:46:37.977Z,582.00
2023-05-19T02:47:37.939Z,586.00
2023-05-19T02:48:37.944Z,581.00
2023-05-19T02:49:37.958Z,585.00
2023-05-19T02:50:37.953Z,582.00
2023-05-19T02:51:37.963Z,587.00
2023-05-19T02:52:37.959Z,584.00
2023-05-19T02:53:38.023Z,582.00
2023-05-19T02:54:37.972Z,585.00
2023-05-19T02:55:37.976Z,587.00
2023-05-19T02:56:38.008Z,585.00
2023-05-19T02:57:37.998Z,586.00
2023-05-19T02:58:38.015Z,585.00
2023-05-19T02:59:38.022Z,584.00
2023-05-19T03:00:38.023Z,583.00
2023-05-19T03:01:38.122Z,585.00
2023-05-19T03:02:38.115Z,580.00
2023-05-19T03:03:38.181Z,572.00
2023-05-19T03:04:38.079Z,560.00
2023-05-19T03:05:38.078Z,538.00
2023-05-19T03:06:38.097Z,536.00
2023-05-19T03:07:38.141Z,528.00
2023-05-19T03:08:40.763Z,518.00
2023-05-19T03:09:38.183Z,513.00
2023-05-19T03:10:38.191Z,501.00
2023-05-19T03:11:38.193Z,489.00
2023-05-19T03:12:38.201Z,481.00
2023-05-19T03:13:38.221Z,473.00
2023-05-19T03:14:38.232Z,500.00
2023-05-19T03:15:38.231Z,500.00
2023-05-19T03:16:38.308Z,500.00
2023-05-19T03:17:38.282Z,491.00
2023-05-19T03:18:38.284Z,478.00
2023-05-19T03:19:38.277Z,470.00
2023-05-19T03:20:40.250Z,463.00
2023-05-19T03:21:38.313Z,501.00
2023-05-19T03:22:38.303Z,500.00
2023-05-19T03:23:38.310Z,500.00
2023-05-19T03:24:38.321Z,501.00
2023-05-19T03:25:38.330Z,500.00
2023-05-19T03:26:38.350Z,500.00
2023-05-19T03:27:38.344Z,500.00
2023-05-19T03:28:38.356Z,500.00
2023-05-19T03:29:38.375Z,502.00
2023-05-19T03:30:38.368Z,501.00
2023-05-19T03:31:38.396Z,502.00
2023-05-19T03:32:38.467Z,503.00
2023-05-19T03:33:38.444Z,500.00
2023-05-19T03:34:38.421Z,502.00
2023-05-19T03:35:38.464Z,500.00
2023-05-19T03:36:38.477Z,502.00
2023-05-19T03:37:38.475Z,501.00
2023-05-19T03:38:38.480Z,500.00
2023-05-19T03:39:38.493Z,501.00
2023-05-19T03:40:38.508Z,503.00
2023-05-19T03:41:38.527Z,500.00
2023-05-19T03:42:38.539Z,501.00
2023-05-19T03:43:38.541Z,501.00
2023-05-19T03:44:38.555Z,500.00
2023-05-19T03:45:38.619Z,503.00
2023-05-19T03:46:38.593Z,504.00
2023-05-19T03:47:38.621Z,500.00
2023-05-19T03:48:38.606Z,507.00
2023-05-19T03:49:38.623Z,503.00
2023-05-19T03:50:38.657Z,505.00
2023-05-19T03:51:38.675Z,501.00
2023-05-19T03:52:38.676Z,503.00
2023-05-19T03:53:38.675Z,501.00
2023-05-19T03:54:38.663Z,502.00
2023-05-19T03:55:38.686Z,501.00
2023-05-19T03:56:38.684Z,503.00
2023-05-19T03:57:38.693Z,504.00
2023-05-19T03:58:38.698Z,502.00
2023-05-19T03:59:38.724Z,501.00
2023-05-19T04:00:38.721Z,503.00
2023-05-19T04:01:38.742Z,503.00
2023-05-19T04:02:38.804Z,500.00
2023-05-19T04:03:38.853Z,504.00
2023-05-19T04:04:38.783Z,501.00
2023-05-19T04:05:38.782Z,500.00
2023-05-19T04:06:38.787Z,503.00
2023-05-19T04:07:38.802Z,508.00
2023-05-19T04:08:38.821Z,503.00
2023-05-19T04:09:38.825Z,503.00
2023-05-19T04:10:38.843Z,502.00
2023-05-19T04:11:38.856Z,503.00
2023-05-19T04:12:38.862Z,503.00
2023-05-19T04:13:38.880Z,502.00
2023-05-19T04:14:38.890Z,509.00
2023-05-19T04:15:38.958Z,509.00
2023-05-19T04:16:38.935Z,501.00
2023-05-19T04:17:39.002Z,503.00
2023-05-19T04:18:38.958Z,500.00
2023-05-19T04:19:38.956Z,505.00
2023-05-19T04:20:38.977Z,501.00
2023-05-19T04:21:38.984Z,501.00
2023-05-19T04:22:39.006Z,500.00
2023-05-19T04:23:39.007Z,506.00
2023-05-19T04:24:39.017Z,502.00
2023-05-19T04:25:39.045Z,505.00
2023-05-19T04:26:39.074Z,510.00
2023-05-19T04:27:39.072Z,503.00
2023-05-19T04:28:39.123Z,502.00
2023-05-19T04:29:39.110Z,504.00
2023-05-19T04:30:39.118Z,507.00
2023-05-19T04:31:39.150Z,505.00
2023-05-19T04:32:39.220Z,505.00
2023-05-19T04:33:39.298Z,502.00
2023-05-19T04:34:39.348Z,500.00
2023-05-19T04:35:39.393Z,501.00
2023-05-19T04:36:39.472Z,509.00
2023-05-19T04:37:39.526Z,505.00
2023-05-19T04:38:39.592Z,501.00
2023-05-19T04:39:39.674Z,505.00
2023-05-19T04:40:39.743Z,507.00
2023-05-19T04:41:39.819Z,506.00
2023-05-19T04:42:39.892Z,503.00
2023-05-19T04:43:39.962Z,502.00
2023-05-19T04:44:40.039Z,500.00
2023-05-19T04:45:40.113Z,505.00
2023-05-19T04:46:40.256Z,500.00
2023-05-19T04:47:40.287Z,505.00
2023-05-19T04:48:40.325Z,504.00
2023-05-19T04:49:40.400Z,500.00
2023-05-19T04:50:40.468Z,506.00
2023-05-19T04:51:40.559Z,505.00
2023-05-19T04:52:40.613Z,501.00
2023-05-19T04:53:40.683Z,506.00
2023-05-19T04:54:40.764Z,507.00
2023-05-19T04:55:40.823Z,503.00
2023-05-19T04:56:40.902Z,503.00
2023-05-19T04:57:40.977Z,507.00
2023-05-19T04:58:41.964Z,502.00
2023-05-19T04:59:41.107Z,506.00
2023-05-19T05:00:41.180Z,507.00
2023-05-19T05:01:41.401Z,502.00
2023-05-19T05:02:41.410Z,509.00
2023-05-19T05:03:41.602Z,508.00
2023-05-19T05:04:41.474Z,504.00
2023-05-19T05:05:41.528Z,504.00
2023-05-19T05:06:41.594Z,505.00
2023-05-19T05:07:41.668Z,510.00
2023-05-19T05:08:41.727Z,508.00
2023-05-19T05:09:41.802Z,504.00
2023-05-19T05:10:41.866Z,507.00
2023-05-19T05:11:41.940Z,507.00
2023-05-19T05:12:42.005Z,507.00
2023-05-19T05:13:42.005Z,507.00
2023-05-19T05:14:42.015Z,507.00
2023-05-19T05:15:42.032Z,507.00
2023-05-19T05:16:42.134Z,508.00
2023-05-19T05:17:42.110Z,505.00
2023-05-19T05:18:44.361Z,505.00
2023-05-19T05:19:42.090Z,509.00
2023-05-19T05:20:42.104Z,509.00
2023-05-19T05:21:42.135Z,510.00
2023-05-19T05:22:42.155Z,509.00
2023-05-19T05:23:42.147Z,507.00
2023-05-19T05:24:42.161Z,509.00
2023-05-19T05:25:42.170Z,504.00
2023-05-19T05:26:42.197Z,508.00
2023-05-19T05:27:42.200Z,505.00
2023-05-19T05:28:42.216Z,507.00
2023-05-19T05:29:42.237Z,505.00
2023-05-19T05:30:42.243Z,500.00
2023-05-19T05:31:42.273Z,504.00
2023-05-19T05:32:42.387Z,505.00
2023-05-19T05:33:42.504Z,505.00
2023-05-19T05:34:42.434Z,504.00
2023-05-19T05:35:42.507Z,504.00
2023-05-19T05:36:42.616Z,502.00
2023-05-19T05:37:42.630Z,502.00
2023-05-19T05:38:42.695Z,503.00
2023-05-19T05:39:42.770Z,504.00
2023-05-19T05:40:42.842Z,504.00
2023-05-19T05:41:42.907Z,505.00
2023-05-19T05:42:42.960Z,506.00
2023-05-19T05:43:43.020Z,507.00
2023-05-19T05:44:43.084Z,508.00
2023-05-19T05:45:43.182Z,508.00
2023-05-19T05:46:43.223Z,507.00
2023-05-19T05:47:43.347Z,505.00
2023-05-19T05:48:43.345Z,510.00
2023-05-19T05:49:43.533Z,507.00
2023-05-19T05:50:43.456Z,505.00
2023-05-19T05:51:51.345Z,511.00
2023-05-19T05:52:43.538Z,511.00
2023-05-19T05:53:43.564Z,506.00
2023-05-19T05:54:43.591Z,510.00
2023-05-19T05:55:43.585Z,509.00
2023-05-19T05:56:43.581Z,508.00
2023-05-19T05:57:43.592Z,509.00
2023-05-19T05:58:43.603Z,510.00
2023-05-19T05:59:43.624Z,509.00
2023-05-19T06:00:43.623Z,514.00
2023-05-19T06:01:43.647Z,512.00
2023-05-19T06:02:43.755Z,513.00
2023-05-19T06:03:43.730Z,516.00
2023-05-19T06:04:43.725Z,518.00
2023-05-19T06:05:43.828Z,519.00
2023-05-19T06:06:43.856Z,514.00
2023-05-19T06:07:43.902Z,514.00
2023-05-19T06:08:43.968Z,516.00
2023-05-19T06:09:44.002Z,515.00
2023-05-19T06:10:46.445Z,516.00
2023-05-19T06:11:44.068Z,519.00
2023-05-19T06:12:44.082Z,517.00
2023-05-19T06:13:44.115Z,517.00
2023-05-19T06:14:44.147Z,520.00
2023-05-19T06:15:44.180Z,522.00
2023-05-19T06:16:44.132Z,523.00
2023-05-19T06:17:44.160Z,523.00
2023-05-19T06:18:44.199Z,525.00
2023-05-19T06:19:44.153Z,524.00
2023-05-19T06:20:44.178Z,522.00
2023-05-19T06:21:44.176Z,523.00
2023-05-19T06:22:44.180Z,523.00
2023-05-19T06:23:44.194Z,524.00
2023-05-19T06:24:44.192Z,524.00
2023-05-19T06:25:44.225Z,525.00
2023-05-19T06:26:44.214Z,525.00
2023-05-19T06:27:44.228Z,527.00
2023-05-19T06:28:44.231Z,536.00
2023-05-19T06:29:44.259Z,533.00
2023-05-19T06:30:44.239Z,531.00
2023-05-19T06:31:44.345Z,535.00
2023-05-19T06:32:44.325Z,536.00
2023-05-19T06:33:44.301Z,536.00
2023-05-19T06:34:44.298Z,540.00
2023-05-19T06:35:44.317Z,544.00
2023-05-19T06:36:44.335Z,539.00
2023-05-19T06:37:44.337Z,540.00
2023-05-19T06:38:44.366Z,541.00
2023-05-19T06:39:44.415Z,548.00
2023-05-19T06:40:44.445Z,550.00
2023-05-19T06:41:44.511Z,542.00
2023-05-19T06:42:44.550Z,542.00
2023-05-19T06:43:44.609Z,541.00
2023-05-19T06:44:44.662Z,538.00
2023-05-19T06:45:44.704Z,538.00
2023-05-19T06:46:44.788Z,544.00
2023-05-19T06:47:44.866Z,544.00
2023-05-19T06:48:44.871Z,538.00
2023-05-19T06:49:44.915Z,539.00
2023-05-19T06:50:44.949Z,536.00
2023-05-19T06:51:45.007Z,534.00
2023-05-19T06:52:45.039Z,534.00
2023-05-19T06:53:45.108Z,535.00
2023-05-19T06:54:45.150Z,533.00
2023-05-19T06:55:58.017Z,535.00
2023-05-19T06:56:46.210Z,535.00
2023-05-19T06:57:45.221Z,536.00
2023-05-19T06:58:45.225Z,541.00
2023-05-19T06:59:45.242Z,564.00
2023-05-19T07:00:45.267Z,595.00
2023-05-19T07:01:45.325Z,613.00
2023-05-19T07:02:45.372Z,645.00
2023-05-19T07:03:45.383Z,668.00
2023-05-19T07:04:45.305Z,695.00
2023-05-19T07:05:45.314Z,707.00
2023-05-19T07:06:45.315Z,704.00
2023-05-19T07:07:45.321Z,707.00
2023-05-19T07:08:45.328Z,706.00
2023-05-19T07:09:45.378Z,707.00
2023-05-19T07:10:45.431Z,720.00
2023-05-19T07:11:45.502Z,720.00
2023-05-19T07:12:45.559Z,726.00
2023-05-19T07:13:45.630Z,735.00
2023-05-19T07:14:45.672Z,733.00
2023-05-19T07:15:45.732Z,741.00
2023-05-19T07:16:45.854Z,753.00
2023-05-19T07:17:45.882Z,743.00
2023-05-19T07:18:45.920Z,743.00
2023-05-19T07:19:45.911Z,758.00
2023-05-19T07:20:45.957Z,759.00
2023-05-19T07:21:46.014Z,764.00
2023-05-19T07:22:46.050Z,774.00
2023-05-19T07:23:46.085Z,783.00
2023-05-19T07:24:46.132Z,789.00
2023-05-19T07:25:46.160Z,893.00
2023-05-19T07:26:46.207Z,1110.00
2023-05-19T07:27:46.225Z,1314.00
2023-05-19T07:28:46.276Z,1373.00
2023-05-19T07:29:46.304Z,1439.00
2023-05-19T07:30:46.354Z,1510.00
2023-05-19T07:31:46.391Z,1548.00
2023-05-19T07:32:46.542Z,1546.00
2023-05-19T07:33:46.474Z,1542.00
2023-05-19T07:34:46.527Z,1524.00
2023-05-19T07:35:46.564Z,1507.00
2023-05-19T07:36:46.586Z,1472.00
2023-05-19T07:37:46.603Z,1460.00
2023-05-19T07:38:46.657Z,1452.00
2023-05-19T07:39:46.669Z,1455.00
2023-05-19T07:40:46.694Z,1448.00
2023-05-19T07:41:46.737Z,1438.00
2023-05-19T07:42:46.767Z,1431.00
2023-05-19T07:43:46.804Z,1433.00
2023-05-19T07:44:46.833Z,1435.00
2023-05-19T07:45:46.925Z,1433.00
2023-05-19T07:46:46.918Z,1427.00
2023-05-19T07:47:46.968Z,1425.00
2023-05-19T07:48:46.987Z,1413.00
2023-05-19T07:49:47.515Z,1399.00
2023-05-19T07:50:47.051Z,1396.00
2023-05-19T07:51:47.089Z,1385.00
2023-05-19T07:52:47.128Z,1375.00
2023-05-19T07:53:47.157Z,1374.00
2023-05-19T07:54:47.161Z,1375.00
2023-05-19T07:55:47.157Z,1376.00
2023-05-19T07:56:47.186Z,1360.00
2023-05-19T07:57:47.166Z,1344.00
2023-05-19T07:58:47.178Z,1351.00
2023-05-19T07:59:47.178Z,1291.00
2023-05-19T08:00:47.205Z,1195.00
2023-05-19T08:01:47.219Z,1068.00
2023-05-19T08:02:47.324Z,957.00
2023-05-19T08:03:47.389Z,900.00
2023-05-19T08:04:47.308Z,856.00
2023-05-19T08:05:47.257Z,805.00
2023-05-19T08:06:47.254Z,750.00
2023-05-19T08:07:47.253Z,719.00
2023-05-19T08:08:47.272Z,673.00
2023-05-19T08:09:47.283Z,662.00
2023-05-19T08:10:47.300Z,648.00
2023-05-19T08:11:47.306Z,642.00
2023-05-19T08:12:47.316Z,633.00
2023-05-19T08:13:47.378Z,626.00
2023-05-19T08:14:47.333Z,618.00
2023-05-19T08:15:47.342Z,607.00
2023-05-19T08:16:47.343Z,594.00
2023-05-19T08:17:47.373Z,579.00
2023-05-19T08:18:47.395Z,569.00
2023-05-19T08:19:47.379Z,553.00
2023-05-19T08:20:47.445Z,548.00
2023-05-19T08:21:47.452Z,528.00
2023-05-19T08:22:47.495Z,513.00
2023-05-19T08:23:47.553Z,506.00
2023-05-19T08:24:47.646Z,500.00
2023-05-19T08:25:47.634Z,502.00
2023-05-19T08:26:47.682Z,501.00
2023-05-19T08:27:47.720Z,500.00
2023-05-19T08:28:47.779Z,500.00
2023-05-19T08:29:47.812Z,500.00
2023-05-19T08:30:47.850Z,500.00
2023-05-19T08:31:47.984Z,499.00
2023-05-19T08:32:47.971Z,500.00
2023-05-19T08:33:47.989Z,500.00
2023-05-19T08:34:48.025Z,501.00
2023-05-19T08:35:48.025Z,501.00
2023-05-19T08:36:48.063Z,489.00
2023-05-19T08:37:48.057Z,479.00
2023-05-19T08:38:48.070Z,469.00
2023-05-19T08:39:48.078Z,461.00
2023-05-19T08:40:48.104Z,500.00
2023-05-19T08:41:48.107Z,502.00
2023-05-19T08:42:48.118Z,503.00
2023-05-19T08:43:48.171Z,500.00
2023-05-19T08:44:48.145Z,502.00
2023-05-19T08:45:48.333Z,504.00
2023-05-19T08:46:48.240Z,500.00
2023-05-19T08:47:48.242Z,500.00
2023-05-19T08:48:48.220Z,500.00
2023-05-19T08:49:48.218Z,500.00
2023-05-19T08:50:48.234Z,500.00
2023-05-19T08:51:48.236Z,500.00
2023-05-19T08:52:50.978Z,500.00
2023-05-19T08:53:48.258Z,497.00
2023-05-19T08:54:48.266Z,491.00
2023-05-19T08:55:48.301Z,487.00
2023-05-19T08:56:48.274Z,483.00
2023-05-19T08:57:48.283Z,476.00
2023-05-19T08:58:48.284Z,500.00
2023-05-19T08:59:48.299Z,501.00
2023-05-19T09:00:48.355Z,501.00
2023-05-19T09:01:48.318Z,502.00
2023-05-19T09:02:59.683Z,504.00
2023-05-19T09:03:49.493Z,504.00
2023-05-19T09:04:48.359Z,505.00
2023-05-19T09:05:48.353Z,512.00
2023-05-19T09:06:48.402Z,525.00
2023-05-19T09:07:48.373Z,554.00
2023-05-19T09:08:48.382Z,566.00
2023-05-19T09:09:48.383Z,583.00
2023-05-19T09:10:48.391Z,594.00
2023-05-19T09:11:48.402Z,611.00
2023-05-19T09:12:48.409Z,623.00
2023-05-19T09:13:48.425Z,626.00
2023-05-19T09:14:48.424Z,633.00
2023-05-19T09:15:48.426Z,645.00
2023-05-19T09:16:48.483Z,652.00
2023-05-19T09:17:48.530Z,663.00
2023-05-19T09:18:48.461Z,695.00
2023-05-19T09:19:48.448Z,730.00
2023-05-19T09:20:48.466Z,753.00
2023-05-19T09:21:48.470Z,774.00
2023-05-19T09:22:48.489Z,789.00
2023-05-19T09:23:48.487Z,803.00
2023-05-19T09:24:48.510Z,831.00
2023-05-19T09:25:48.571Z,861.00
2023-05-19T09:26:48.650Z,872.00
2023-05-19T09:27:48.703Z,907.00
2023-05-19T09:28:48.779Z,926.00
2023-05-19T09:29:48.832Z,955.00
2023-05-19T09:30:48.903Z,969.00
2023-05-19T09:31:49.029Z,978.00
2023-05-19T09:32:49.079Z,997.00
2023-05-19T09:33:49.061Z,1013.00
2023-05-19T09:34:49.115Z,1011.00
2023-05-19T09:35:49.160Z,1033.00
2023-05-19T09:36:49.223Z,1047.00
2023-05-19T09:37:49.288Z,1049.00
2023-05-19T09:38:49.331Z,1071.00
2023-05-19T09:39:49.394Z,1078.00
2023-05-19T09:40:49.420Z,1099.00
2023-05-19T09:41:49.480Z,1122.00
2023-05-19T09:42:49.541Z,1128.00
2023-05-19T09:43:49.567Z,1131.00
2023-05-19T09:44:49.621Z,1148.00
2023-05-19T09:45:49.683Z,1160.00
2023-05-19T09:46:49.714Z,1167.00
2023-05-19T09:47:49.796Z,1174.00
2023-05-19T09:48:49.797Z,1180.00
2023-05-19T09:49:49.834Z,1186.00
2023-05-19T09:50:49.898Z,1185.00
2023-05-19T09:51:49.921Z,1189.00
2023-05-19T09:52:49.945Z,1205.00
2023-05-19T09:53:49.971Z,1196.00
2023-05-19T09:54:50.017Z,1210.00
2023-05-19T09:55:50.036Z,1215.00
2023-05-19T09:56:50.067Z,1224.00
2023-05-19T09:57:50.082Z,1226.00
2023-05-19T09:58:50.108Z,1224.00
2023-05-19T09:59:50.137Z,1228.00
2023-05-19T10:00:50.168Z,1247.00
2023-05-19T10:01:50.227Z,1248.00
2023-05-19T10:02:50.291Z,1245.00
2023-05-19T10:03:50.248Z,1252.00
2023-05-19T10:04:50.336Z,1252.00
2023-05-19T10:05:50.334Z,1260.00
2023-05-19T10:06:50.322Z,1260.00
2023-05-19T10:07:50.355Z,1274.00
2023-05-19T10:08:50.410Z,1272.00
2023-05-19T10:09:50.411Z,1266.00
2023-05-19T10:10:50.430Z,1264.00
2023-05-19T10:11:50.465Z,1288.00
2023-05-19T10:12:50.509Z,1288.00
2023-05-19T10:13:50.538Z,1286.00
2023-05-19T10:14:50.548Z,1283.00
2023-05-19T10:16:50.617Z,1297.00
2023-05-19T10:17:50.643Z,1298.00
2023-05-19T10:18:50.636Z,1303.00
2023-05-19T10:19:50.609Z,1312.00
2023-05-19T10:20:50.621Z,1317.00
2023-05-19T10:21:50.768Z,1333.00
2023-05-19T10:22:50.646Z,1342.00
2023-05-19T10:23:50.646Z,1333.00
2023-05-19T10:24:50.650Z,1328.00
2023-05-19T10:25:50.652Z,1342.00
2023-05-19T10:26:50.661Z,1345.00
2023-05-19T10:27:50.665Z,1339.00
2023-05-19T10:28:50.685Z,1346.00
2023-05-19T10:29:50.704Z,1348.00
2023-05-19T10:30:50.697Z,1343.00
2023-05-19T10:31:50.763Z,1340.00
2023-05-19T10:32:50.795Z,1354.00
2023-05-19T10:33:50.720Z,1350.00
2023-05-19T10:34:50.741Z,1348.00
2023-05-19T10:35:50.733Z,1350.00
2023-05-19T10:36:50.773Z,1344.00
2023-05-19T10:37:50.794Z,1352.00
2023-05-19T10:38:50.750Z,1349.00
2023-05-19T10:39:50.751Z,1342.00
2023-05-19T10:40:50.776Z,1352.00
2023-05-19T10:41:50.793Z,1358.00
2023-05-19T10:42:50.797Z,1350.00
2023-05-19T10:43:50.790Z,1334.00
2023-05-19T10:44:50.859Z,1358.00
2023-05-19T10:45:50.855Z,1349.00
2023-05-19T10:46:50.953Z,1334.00
2023-05-19T10:47:50.945Z,1328.00
2023-05-19T10:48:50.950Z,1331.00
2023-05-19T10:49:50.958Z,1330.00
2023-05-19T10:50:50.995Z,1342.00
2023-05-19T10:51:51.016Z,1332.00
2023-05-19T10:52:51.051Z,1330.00
2023-05-19T10:53:51.073Z,1346.00
2023-05-19T10:54:51.099Z,1340.00
2023-05-19T10:55:51.155Z,1349.00
2023-05-19T10:56:51.172Z,1340.00
2023-05-19T10:57:51.184Z,1340.00
2023-05-19T10:58:51.212Z,1349.00
2023-05-19T10:59:51.269Z,1348.00
2023-05-19T11:00:51.267Z,1340.00
2023-05-19T11:01:51.333Z,1341.00
2023-05-19T11:02:51.347Z,1356.00
2023-05-19T11:03:51.398Z,1367.00
2023-05-19T11:04:52.170Z,1350.00
2023-05-19T11:05:51.403Z,1369.00
2023-05-19T11:06:51.467Z,1353.00
2023-05-19T11:07:51.471Z,1364.00
2023-05-19T11:08:51.480Z,1348.00
2023-05-19T11:09:51.508Z,1348.00
2023-05-19T11:10:51.529Z,1354.00
2023-05-19T11:11:51.550Z,1343.00
2023-05-19T11:12:52.088Z,1354.00
2023-05-19T11:13:51.622Z,1351.00
2023-05-19T11:14:51.622Z,1332.00
2023-05-19T11:15:51.640Z,1348.00
2023-05-19T11:16:51.790Z,1330.00
2023-05-19T11:17:51.714Z,1341.00
2023-05-19T11:18:51.742Z,1329.00
2023-05-19T11:19:51.720Z,1328.00
2023-05-19T11:20:51.793Z,1312.00
2023-05-19T11:21:51.794Z,1326.00
2023-05-19T11:22:51.791Z,1312.00
2023-05-19T11:23:51.909Z,1300.00
2023-05-19T11:24:51.837Z,1308.00
2023-05-19T11:25:51.866Z,1307.00
2023-05-19T11:26:51.894Z,1317.00
2023-05-19T11:27:51.891Z,1291.00
2023-05-19T11:28:51.921Z,1268.00
2023-05-19T11:29:51.954Z,1278.00
2023-05-19T11:30:52.467Z,1291.00
2023-05-19T11:31:52.055Z,1281.00
2023-05-19T11:32:52.060Z,1263.00
2023-05-19T11:33:52.063Z,1244.00
2023-05-19T11:34:52.089Z,1261.00
2023-05-19T11:35:52.108Z,1258.00
2023-05-19T11:36:52.126Z,1278.00
2023-05-19T11:37:52.151Z,1270.00
2023-05-19T11:38:52.166Z,1276.00
2023-05-19T11:39:52.263Z,1282.00
2023-05-19T11:40:52.207Z,1279.00
2023-05-19T11:41:52.231Z,1280.00
2023-05-19T11:42:52.223Z,1282.00
2023-05-19T11:43:52.234Z,1281.00
2023-05-19T11:44:52.235Z,1291.00
2023-05-19T11:45:52.282Z,1306.00
2023-05-19T11:46:52.297Z,1310.00
2023-05-19T11:48:53.306Z,1305.00
2023-05-19T11:49:52.268Z,1306.00
2023-05-19T11:50:52.264Z,1309.00
2023-05-19T11:51:52.265Z,1313.00
2023-05-19T11:52:52.267Z,1323.00
2023-05-19T11:53:52.254Z,1342.00
2023-05-19T11:54:52.264Z,1337.00
2023-05-19T11:55:52.655Z,1333.00
2023-05-19T11:56:52.288Z,1333.00
2023-05-19T11:58:03.034Z,1340.00
2023-05-19T11:58:53.290Z,1340.00
2023-05-19T11:59:52.274Z,1342.00
2023-05-19T12:00:52.274Z,1344.00
2023-05-19T12:01:52.278Z,1352.00
2023-05-19T12:02:52.335Z,1360.00
2023-05-19T12:03:52.547Z,1355.00
2023-05-19T12:04:52.376Z,1353.00
2023-05-19T12:05:52.463Z,1366.00
2023-05-19T12:06:52.293Z,1369.00
2023-05-19T12:07:52.303Z,1367.00
2023-05-19T12:08:52.284Z,1376.00
2023-05-19T12:09:52.285Z,1373.00
2023-05-19T12:10:52.291Z,1372.00
2023-05-19T12:11:52.298Z,1373.00
2023-05-19T12:12:52.298Z,1380.00
2023-05-19T12:13:52.398Z,1375.00
2023-05-19T12:14:52.317Z,1379.00
2023-05-19T12:15:52.459Z,1368.00
2023-05-19T12:16:52.392Z,1377.00
2023-05-19T12:17:52.344Z,1397.00
2023-05-19T12:18:52.379Z,1394.00
2023-05-19T12:19:52.335Z,1389.00
2023-05-19T12:20:52.331Z,1401.00
2023-05-19T12:21:52.348Z,1388.00
2023-05-19T12:22:52.335Z,1396.00
2023-05-19T12:23:52.367Z,1394.00
2023-05-19T12:24:52.351Z,1395.00